sensor_id;sensor_type;location;lat;lon;timestamp;P1;durP1;ratioP1;P2;durP2;ratioP2
12871;SDS011;6504;53.766;9.626;2023-02-01T00:00:54;20.50;;;4.53;;
12871;SDS011;6504;53.766;9.626;2023-02-01T00:03:22;20.73;;;5.43;;
12871;SDS011;6504;53.766;9.626;2023-02-01T00:05:56;22.67;;;5.87;;
12871;SDS011;6504;53.766;9.626;2023-02-01T00:08:24;21.57;;;6.60;;
12871;SDS011;6504;53.766;9.626;2023-02-01T00:11:02;24.07;;;5.47;;
12871;SDS011;6504;53.766;9.626;2023-02-01T00:13:35;19.77;;;5.80;;
12871;SDS011;6504;53.766;9.626;2023-02-01T00:16:05;25.70;;;6.73;;
12871;SDS011;6504;53.766;9.626;2023-02-01T00:18:35;23.60;;;5.73;;
12871;SDS011;6504;53.766;9.626;2023-02-01T00:21:03;24.13;;;6.20;;
12871;SDS011;6504;53.766;9.626;2023-02-01T00:23:32;26.63;;;6.07;;
12871;SDS011;6504;53.766;9.626;2023-02-01T00:26:01;17.13;;;5.50;;
12871;SDS011;6504;53.766;9.626;2023-02-01T00:28:29;24.97;;;6.73;;
12871;SDS011;6504;53.766;9.626;2023-02-01T00:30:59;22.37;;;5.40;;
12871;SDS011;6504;53.766;9.626;2023-02-01T00:33:28;20.43;;;5.10;;
12871;SDS011;6504;53.766;9.626;2023-02-01T00:35:58;23.97;;;5.27;;
12871;SDS011;6504;53.766;9.626;2023-02-01T00:38:26;18.57;;;5.07;;
12871;SDS011;6504;53.766;9.626;2023-02-01T00:41:01;19.70;;;5.00;;
12871;SDS011;6504;53.766;9.626;2023-02-01T00:43:30;25.87;;;6.53;;
12871;SDS011;6504;53.766;9.626;2023-02-01T00:46:00;23.23;;;5.67;;
12871;SDS011;6504;53.766;9.626;2023-02-01T00:48:28;21.70;;;5.83;;
12871;SDS011;6504;53.766;9.626;2023-02-01T00:50:58;23.83;;;5.47;;
12871;SDS011;6504;53.766;9.626;2023-02-01T00:53:27;25.93;;;6.53;;
12871;SDS011;6504;53.766;9.626;2023-02-01T00:55:55;28.37;;;6.70;;
12871;SDS011;6504;53.766;9.626;2023-02-01T00:58:23;24.63;;;7.07;;
12871;SDS011;6504;53.766;9.626;2023-02-01T01:01:01;27.00;;;6.33;;
12871;SDS011;6504;53.766;9.626;2023-02-01T01:03:31;25.33;;;7.13;;
12871;SDS011;6504;53.766;9.626;2023-02-01T01:06:02;28.73;;;7.07;;
12871;SDS011;6504;53.766;9.626;2023-02-01T01:08:31;30.90;;;6.83;;
12871;SDS011;6504;53.766;9.626;2023-02-01T01:11:03;24.73;;;6.30;;
12871;SDS011;6504;53.766;9.626;2023-02-01T01:13:32;23.73;;;6.33;;
12871;SDS011;6504;53.766;9.626;2023-02-01T01:16:02;25.33;;;6.13;;
12871;SDS011;6504;53.766;9.626;2023-02-01T01:18:31;24.50;;;6.70;;
12871;SDS011;6504;53.766;9.626;2023-02-01T01:21:00;25.00;;;7.90;;
12871;SDS011;6504;53.766;9.626;2023-02-01T01:23:28;29.53;;;6.23;;
12871;SDS011;6504;53.766;9.626;2023-02-01T01:25:56;31.57;;;7.07;;
12871;SDS011;6504;53.766;9.626;2023-02-01T01:28:24;24.30;;;6.27;;
12871;SDS011;6504;53.766;9.626;2023-02-01T01:30:52;33.27;;;8.23;;
12871;SDS011;6504;53.766;9.626;2023-02-01T01:33:21;28.77;;;6.27;;
12871;SDS011;6504;53.766;9.626;2023-02-01T01:35:49;23.53;;;6.70;;
12871;SDS011;6504;53.766;9.626;2023-02-01T01:38:17;22.43;;;6.20;;
12871;SDS011;6504;53.766;9.626;2023-02-01T01:40:45;28.10;;;6.57;;
12871;SDS011;6504;53.766;9.626;2023-02-01T01:43:16;24.33;;;6.40;;
12871;SDS011;6504;53.766;9.626;2023-02-01T01:45:45;26.67;;;7.23;;
12871;SDS011;6504;53.766;9.626;2023-02-01T01:48:14;18.53;;;5.63;;
12871;SDS011;6504;53.766;9.626;2023-02-01T01:50:47;24.87;;;6.87;;
12871;SDS011;6504;53.766;9.626;2023-02-01T01:53:19;23.57;;;7.33;;
12871;SDS011;6504;53.766;9.626;2023-02-01T01:55:51;21.47;;;6.77;;
12871;SDS011;6504;53.766;9.626;2023-02-01T01:58:23;27.83;;;6.17;;
12871;SDS011;6504;53.766;9.626;2023-02-01T02:00:55;25.47;;;6.30;;
12871;SDS011;6504;53.766;9.626;2023-02-01T02:03:25;26.80;;;6.93;;
12871;SDS011;6504;53.766;9.626;2023-02-01T02:06:02;24.33;;;5.97;;
12871;SDS011;6504;53.766;9.626;2023-02-01T02:08:33;26.77;;;5.80;;
12871;SDS011;6504;53.766;9.626;2023-02-01T02:11:01;22.17;;;6.03;;
12871;SDS011;6504;53.766;9.626;2023-02-01T02:13:30;26.17;;;6.40;;
12871;SDS011;6504;53.766;9.626;2023-02-01T02:16:04;24.90;;;6.37;;
12871;SDS011;6504;53.766;9.626;2023-02-01T02:18:41;25.63;;;7.43;;
12871;SDS011;6504;53.766;9.626;2023-02-01T02:21:19;27.77;;;6.73;;
12871;SDS011;6504;53.766;9.626;2023-02-01T02:24:09;30.63;;;6.83;;
12871;SDS011;6504;53.766;9.626;2023-02-01T02:27:06;35.80;;;8.63;;
12871;SDS011;6504;53.766;9.626;2023-02-01T02:32:55;27.07;;;6.30;;
12871;SDS011;6504;53.766;9.626;2023-02-01T02:35:44;22.17;;;5.47;;
12871;SDS011;6504;53.766;9.626;2023-02-01T02:38:21;21.13;;;6.07;;
12871;SDS011;6504;53.766;9.626;2023-02-01T02:40:57;18.17;;;5.67;;
12871;SDS011;6504;53.766;9.626;2023-02-01T02:43:34;22.93;;;6.80;;
12871;SDS011;6504;53.766;9.626;2023-02-01T02:46:31;27.47;;;6.70;;
12871;SDS011;6504;53.766;9.626;2023-02-01T02:49:25;30.40;;;6.83;;
12871;SDS011;6504;53.766;9.626;2023-02-01T02:52:02;24.57;;;6.53;;
12871;SDS011;6504;53.766;9.626;2023-02-01T02:54:50;26.43;;;6.37;;
12871;SDS011;6504;53.766;9.626;2023-02-01T02:57:22;26.03;;;5.90;;
12871;SDS011;6504;53.766;9.626;2023-02-01T03:00:12;24.33;;;7.77;;
12871;SDS011;6504;53.766;9.626;2023-02-01T03:03:00;28.97;;;5.73;;
12871;SDS011;6504;53.766;9.626;2023-02-01T03:05:48;22.13;;;5.27;;
12871;SDS011;6504;53.766;9.626;2023-02-01T03:08:18;22.73;;;5.83;;
12871;SDS011;6504;53.766;9.626;2023-02-01T03:10:51;26.63;;;6.53;;
12871;SDS011;6504;53.766;9.626;2023-02-01T03:13:26;29.63;;;7.20;;
12871;SDS011;6504;53.766;9.626;2023-02-01T03:16:03;24.13;;;6.13;;
12871;SDS011;6504;53.766;9.626;2023-02-01T03:18:41;26.43;;;6.07;;
12871;SDS011;6504;53.766;9.626;2023-02-01T03:21:16;25.37;;;6.30;;
12871;SDS011;6504;53.766;9.626;2023-02-01T03:23:47;23.33;;;5.87;;
12871;SDS011;6504;53.766;9.626;2023-02-01T03:26:18;23.63;;;6.17;;
12871;SDS011;6504;53.766;9.626;2023-02-01T03:28:49;25.53;;;6.87;;
12871;SDS011;6504;53.766;9.626;2023-02-01T03:31:23;28.27;;;7.47;;
12871;SDS011;6504;53.766;9.626;2023-02-01T03:33:51;20.80;;;4.50;;
12871;SDS011;6504;53.766;9.626;2023-02-01T03:36:23;16.20;;;4.77;;
12871;SDS011;6504;53.766;9.626;2023-02-01T03:38:58;18.53;;;4.70;;
12871;SDS011;6504;53.766;9.626;2023-02-01T03:41:34;17.63;;;4.27;;
12871;SDS011;6504;53.766;9.626;2023-02-01T03:44:08;19.37;;;5.20;;
12871;SDS011;6504;53.766;9.626;2023-02-01T03:46:42;21.00;;;5.37;;
12871;SDS011;6504;53.766;9.626;2023-02-01T03:49:17;22.97;;;4.77;;
12871;SDS011;6504;53.766;9.626;2023-02-01T03:51:49;30.30;;;6.00;;
12871;SDS011;6504;53.766;9.626;2023-02-01T03:54:18;19.47;;;5.23;;
12871;SDS011;6504;53.766;9.626;2023-02-01T03:56:47;20.70;;;5.80;;
12871;SDS011;6504;53.766;9.626;2023-02-01T03:59:18;20.87;;;5.30;;
12871;SDS011;6504;53.766;9.626;2023-02-01T04:01:46;22.93;;;6.20;;
12871;SDS011;6504;53.766;9.626;2023-02-01T04:04:14;24.63;;;5.53;;
12871;SDS011;6504;53.766;9.626;2023-02-01T04:06:46;14.77;;;4.83;;
12871;SDS011;6504;53.766;9.626;2023-02-01T04:09:16;15.67;;;4.00;;
12871;SDS011;6504;53.766;9.626;2023-02-01T04:11:44;16.83;;;4.43;;
12871;SDS011;6504;53.766;9.626;2023-02-01T04:14:12;13.67;;;3.90;;
12871;SDS011;6504;53.766;9.626;2023-02-01T04:16:41;16.43;;;4.30;;
12871;SDS011;6504;53.766;9.626;2023-02-01T04:19:09;20.27;;;5.37;;
12871;SDS011;6504;53.766;9.626;2023-02-01T04:21:37;23.40;;;5.80;;
12871;SDS011;6504;53.766;9.626;2023-02-01T04:24:06;22.20;;;6.10;;
12871;SDS011;6504;53.766;9.626;2023-02-01T04:26:36;32.27;;;6.53;;
12871;SDS011;6504;53.766;9.626;2023-02-01T04:29:04;21.33;;;4.83;;
12871;SDS011;6504;53.766;9.626;2023-02-01T04:31:32;20.60;;;5.40;;
12871;SDS011;6504;53.766;9.626;2023-02-01T04:34:04;14.60;;;3.70;;
12871;SDS011;6504;53.766;9.626;2023-02-01T04:36:32;10.80;;;2.63;;
12871;SDS011;6504;53.766;9.626;2023-02-01T04:39:00;7.07;;;2.87;;
12871;SDS011;6504;53.766;9.626;2023-02-01T04:41:29;6.40;;;2.47;;
12871;SDS011;6504;53.766;9.626;2023-02-01T04:43:58;11.07;;;3.17;;
12871;SDS011;6504;53.766;9.626;2023-02-01T04:46:26;9.17;;;2.77;;
12871;SDS011;6504;53.766;9.626;2023-02-01T04:48:54;11.53;;;2.70;;
12871;SDS011;6504;53.766;9.626;2023-02-01T04:51:22;11.37;;;3.23;;
12871;SDS011;6504;53.766;9.626;2023-02-01T04:53:50;12.33;;;3.00;;
12871;SDS011;6504;53.766;9.626;2023-02-01T04:56:18;12.33;;;3.27;;
12871;SDS011;6504;53.766;9.626;2023-02-01T04:58:46;13.13;;;3.43;;
12871;SDS011;6504;53.766;9.626;2023-02-01T05:01:16;10.30;;;3.03;;
12871;SDS011;6504;53.766;9.626;2023-02-01T05:03:44;10.63;;;3.13;;
12871;SDS011;6504;53.766;9.626;2023-02-01T05:06:12;10.23;;;2.70;;
12871;SDS011;6504;53.766;9.626;2023-02-01T05:08:40;9.53;;;2.43;;
12871;SDS011;6504;53.766;9.626;2023-02-01T05:11:08;8.13;;;2.33;;
12871;SDS011;6504;53.766;9.626;2023-02-01T05:13:57;5.17;;;2.03;;
12871;SDS011;6504;53.766;9.626;2023-02-01T05:16:28;6.60;;;1.90;;
12871;SDS011;6504;53.766;9.626;2023-02-01T05:18:57;5.30;;;1.80;;
12871;SDS011;6504;53.766;9.626;2023-02-01T05:21:25;6.13;;;2.33;;
12871;SDS011;6504;53.766;9.626;2023-02-01T05:23:53;6.40;;;1.80;;
12871;SDS011;6504;53.766;9.626;2023-02-01T05:26:36;3.40;;;1.90;;
12871;SDS011;6504;53.766;9.626;2023-02-01T05:29:05;5.63;;;1.67;;
12871;SDS011;6504;53.766;9.626;2023-02-01T05:31:35;3.00;;;1.63;;
12871;SDS011;6504;53.766;9.626;2023-02-01T05:34:04;6.93;;;1.73;;
12871;SDS011;6504;53.766;9.626;2023-02-01T05:36:33;4.27;;;1.80;;
12871;SDS011;6504;53.766;9.626;2023-02-01T05:39:01;4.37;;;1.80;;
12871;SDS011;6504;53.766;9.626;2023-02-01T05:41:29;4.77;;;1.50;;
12871;SDS011;6504;53.766;9.626;2023-02-01T05:43:57;9.13;;;2.07;;
12871;SDS011;6504;53.766;9.626;2023-02-01T05:46:25;6.20;;;2.30;;
12871;SDS011;6504;53.766;9.626;2023-02-01T05:48:55;9.03;;;3.10;;
12871;SDS011;6504;53.766;9.626;2023-02-01T05:51:23;6.27;;;2.23;;
12871;SDS011;6504;53.766;9.626;2023-02-01T05:53:51;4.07;;;1.90;;
12871;SDS011;6504;53.766;9.626;2023-02-01T05:56:19;7.43;;;1.97;;
12871;SDS011;6504;53.766;9.626;2023-02-01T05:58:47;6.83;;;1.97;;
12871;SDS011;6504;53.766;9.626;2023-02-01T06:01:15;8.73;;;1.87;;
12871;SDS011;6504;53.766;9.626;2023-02-01T06:03:43;7.83;;;2.30;;
12871;SDS011;6504;53.766;9.626;2023-02-01T06:06:13;12.50;;;2.80;;
12871;SDS011;6504;53.766;9.626;2023-02-01T06:08:41;6.87;;;2.27;;
12871;SDS011;6504;53.766;9.626;2023-02-01T06:11:09;6.53;;;2.40;;
12871;SDS011;6504;53.766;9.626;2023-02-01T06:13:48;10.87;;;2.70;;
12871;SDS011;6504;53.766;9.626;2023-02-01T06:16:16;12.27;;;2.73;;
12871;SDS011;6504;53.766;9.626;2023-02-01T06:18:44;8.80;;;2.60;;
12871;SDS011;6504;53.766;9.626;2023-02-01T06:21:14;9.03;;;3.33;;
12871;SDS011;6504;53.766;9.626;2023-02-01T06:23:49;8.03;;;2.57;;
12871;SDS011;6504;53.766;9.626;2023-02-01T06:26:17;11.70;;;2.83;;
12871;SDS011;6504;53.766;9.626;2023-02-01T06:28:46;7.97;;;2.80;;
12871;SDS011;6504;53.766;9.626;2023-02-01T06:31:14;14.97;;;4.10;;
12871;SDS011;6504;53.766;9.626;2023-02-01T06:33:42;14.73;;;4.17;;
12871;SDS011;6504;53.766;9.626;2023-02-01T06:36:12;15.87;;;4.13;;
12871;SDS011;6504;53.766;9.626;2023-02-01T06:38:42;17.23;;;5.30;;
12871;SDS011;6504;53.766;9.626;2023-02-01T06:41:10;17.30;;;4.27;;
12871;SDS011;6504;53.766;9.626;2023-02-01T06:43:38;20.37;;;5.50;;
12871;SDS011;6504;53.766;9.626;2023-02-01T06:46:07;22.60;;;6.03;;
12871;SDS011;6504;53.766;9.626;2023-02-01T06:48:38;29.60;;;6.77;;
12871;SDS011;6504;53.766;9.626;2023-02-01T06:51:14;20.10;;;5.00;;
12871;SDS011;6504;53.766;9.626;2023-02-01T06:53:46;22.00;;;6.50;;
12871;SDS011;6504;53.766;9.626;2023-02-01T06:56:14;20.33;;;6.33;;
12871;SDS011;6504;53.766;9.626;2023-02-01T06:58:42;22.97;;;6.03;;
12871;SDS011;6504;53.766;9.626;2023-02-01T07:01:10;26.27;;;5.93;;
12871;SDS011;6504;53.766;9.626;2023-02-01T07:03:39;24.87;;;6.07;;
12871;SDS011;6504;53.766;9.626;2023-02-01T07:06:07;18.07;;;5.57;;
12871;SDS011;6504;53.766;9.626;2023-02-01T07:08:38;27.77;;;6.57;;
12871;SDS011;6504;53.766;9.626;2023-02-01T07:11:06;34.07;;;7.47;;
12871;SDS011;6504;53.766;9.626;2023-02-01T07:13:36;27.77;;;6.37;;
12871;SDS011;6504;53.766;9.626;2023-02-01T07:16:06;25.80;;;6.87;;
12871;SDS011;6504;53.766;9.626;2023-02-01T07:18:36;24.03;;;5.67;;
12871;SDS011;6504;53.766;9.626;2023-02-01T07:21:04;18.07;;;5.00;;
12871;SDS011;6504;53.766;9.626;2023-02-01T07:23:33;13.10;;;4.07;;
12871;SDS011;6504;53.766;9.626;2023-02-01T07:26:03;9.27;;;3.80;;
12871;SDS011;6504;53.766;9.626;2023-02-01T07:28:34;18.27;;;4.83;;
12871;SDS011;6504;53.766;9.626;2023-02-01T07:31:04;23.17;;;5.03;;
12871;SDS011;6504;53.766;9.626;2023-02-01T07:33:33;24.00;;;6.60;;
12871;SDS011;6504;53.766;9.626;2023-02-01T07:36:02;20.37;;;5.67;;
12871;SDS011;6504;53.766;9.626;2023-02-01T07:38:32;23.83;;;6.23;;
12871;SDS011;6504;53.766;9.626;2023-02-01T07:41:01;20.30;;;5.53;;
12871;SDS011;6504;53.766;9.626;2023-02-01T07:43:31;23.70;;;6.20;;
12871;SDS011;6504;53.766;9.626;2023-02-01T07:46:00;22.57;;;5.80;;
12871;SDS011;6504;53.766;9.626;2023-02-01T07:48:30;21.83;;;5.67;;
12871;SDS011;6504;53.766;9.626;2023-02-01T07:51:00;28.07;;;6.57;;
12871;SDS011;6504;53.766;9.626;2023-02-01T07:53:30;23.50;;;5.60;;
12871;SDS011;6504;53.766;9.626;2023-02-01T07:56:00;20.67;;;5.23;;
12871;SDS011;6504;53.766;9.626;2023-02-01T07:58:30;25.37;;;5.20;;
12871;SDS011;6504;53.766;9.626;2023-02-01T08:00:58;19.27;;;5.60;;
12871;SDS011;6504;53.766;9.626;2023-02-01T08:03:44;27.33;;;6.07;;
12871;SDS011;6504;53.766;9.626;2023-02-01T08:06:12;24.80;;;5.80;;
12871;SDS011;6504;53.766;9.626;2023-02-01T08:08:40;24.63;;;6.37;;
12871;SDS011;6504;53.766;9.626;2023-02-01T08:11:12;20.17;;;5.30;;
12871;SDS011;6504;53.766;9.626;2023-02-01T08:13:41;21.53;;;5.03;;
12871;SDS011;6504;53.766;9.626;2023-02-01T08:16:10;23.03;;;5.50;;
12871;SDS011;6504;53.766;9.626;2023-02-01T08:18:39;19.33;;;5.00;;
12871;SDS011;6504;53.766;9.626;2023-02-01T08:21:09;19.97;;;5.10;;
12871;SDS011;6504;53.766;9.626;2023-02-01T08:23:39;23.00;;;4.87;;
12871;SDS011;6504;53.766;9.626;2023-02-01T08:26:08;25.93;;;5.60;;
12871;SDS011;6504;53.766;9.626;2023-02-01T08:28:40;17.27;;;4.57;;
12871;SDS011;6504;53.766;9.626;2023-02-01T08:31:12;18.33;;;4.60;;
12871;SDS011;6504;53.766;9.626;2023-02-01T08:33:42;13.37;;;4.00;;
12871;SDS011;6504;53.766;9.626;2023-02-01T08:36:11;18.90;;;3.87;;
12871;SDS011;6504;53.766;9.626;2023-02-01T08:38:39;20.63;;;4.20;;
12871;SDS011;6504;53.766;9.626;2023-02-01T08:41:07;15.40;;;3.87;;
12871;SDS011;6504;53.766;9.626;2023-02-01T08:43:37;19.83;;;4.27;;
12871;SDS011;6504;53.766;9.626;2023-02-01T08:46:07;16.37;;;4.70;;
12871;SDS011;6504;53.766;9.626;2023-02-01T08:48:36;17.03;;;4.33;;
12871;SDS011;6504;53.766;9.626;2023-02-01T08:51:05;19.63;;;5.43;;
12871;SDS011;6504;53.766;9.626;2023-02-01T08:53:35;16.17;;;4.20;;
12871;SDS011;6504;53.766;9.626;2023-02-01T08:56:04;17.80;;;4.33;;
12871;SDS011;6504;53.766;9.626;2023-02-01T08:58:33;17.20;;;4.33;;
12871;SDS011;6504;53.766;9.626;2023-02-01T09:01:02;16.80;;;5.33;;
12871;SDS011;6504;53.766;9.626;2023-02-01T09:03:32;23.40;;;4.47;;
12871;SDS011;6504;53.766;9.626;2023-02-01T09:06:00;16.07;;;4.60;;
12871;SDS011;6504;53.766;9.626;2023-02-01T09:08:29;20.23;;;4.80;;
12871;SDS011;6504;53.766;9.626;2023-02-01T09:10:58;22.17;;;5.43;;
12871;SDS011;6504;53.766;9.626;2023-02-01T09:13:28;17.27;;;4.97;;
12871;SDS011;6504;53.766;9.626;2023-02-01T09:15:57;15.73;;;4.80;;
12871;SDS011;6504;53.766;9.626;2023-02-01T09:18:26;20.87;;;5.10;;
12871;SDS011;6504;53.766;9.626;2023-02-01T09:20:55;18.93;;;4.50;;
12871;SDS011;6504;53.766;9.626;2023-02-01T09:23:23;21.37;;;5.23;;
12871;SDS011;6504;53.766;9.626;2023-02-01T09:25:52;18.97;;;5.17;;
12871;SDS011;6504;53.766;9.626;2023-02-01T09:28:20;23.63;;;5.47;;
12871;SDS011;6504;53.766;9.626;2023-02-01T09:30:48;23.60;;;5.83;;
12871;SDS011;6504;53.766;9.626;2023-02-01T09:33:16;20.37;;;5.20;;
12871;SDS011;6504;53.766;9.626;2023-02-01T09:35:44;17.63;;;4.27;;
12871;SDS011;6504;53.766;9.626;2023-02-01T09:38:14;16.97;;;5.23;;
12871;SDS011;6504;53.766;9.626;2023-02-01T09:40:42;19.13;;;4.90;;
12871;SDS011;6504;53.766;9.626;2023-02-01T09:43:17;17.67;;;5.03;;
12871;SDS011;6504;53.766;9.626;2023-02-01T09:45:53;18.90;;;4.43;;
12871;SDS011;6504;53.766;9.626;2023-02-01T09:48:27;19.40;;;4.27;;
12871;SDS011;6504;53.766;9.626;2023-02-01T09:50:59;19.60;;;5.10;;
12871;SDS011;6504;53.766;9.626;2023-02-01T09:53:34;17.50;;;5.17;;
12871;SDS011;6504;53.766;9.626;2023-02-01T09:56:05;15.77;;;4.87;;
12871;SDS011;6504;53.766;9.626;2023-02-01T09:58:41;20.97;;;5.00;;
12871;SDS011;6504;53.766;9.626;2023-02-01T10:01:13;16.43;;;4.83;;
12871;SDS011;6504;53.766;9.626;2023-02-01T10:03:45;19.20;;;4.93;;
12871;SDS011;6504;53.766;9.626;2023-02-01T10:06:21;23.27;;;6.10;;
12871;SDS011;6504;53.766;9.626;2023-02-01T10:09:04;20.93;;;4.67;;
12871;SDS011;6504;53.766;9.626;2023-02-01T10:11:51;23.90;;;5.53;;
12871;SDS011;6504;53.766;9.626;2023-02-01T10:14:36;17.70;;;4.83;;
12871;SDS011;6504;53.766;9.626;2023-02-01T10:17:18;24.53;;;6.33;;
12871;SDS011;6504;53.766;9.626;2023-02-01T10:19:55;20.83;;;5.77;;
12871;SDS011;6504;53.766;9.626;2023-02-01T10:22:35;21.23;;;4.87;;
12871;SDS011;6504;53.766;9.626;2023-02-01T10:25:30;18.57;;;4.90;;
12871;SDS011;6504;53.766;9.626;2023-02-01T10:28:04;21.27;;;5.77;;
12871;SDS011;6504;53.766;9.626;2023-02-01T10:30:33;24.03;;;6.07;;
12871;SDS011;6504;53.766;9.626;2023-02-01T10:33:13;24.63;;;5.33;;
12871;SDS011;6504;53.766;9.626;2023-02-01T10:35:43;21.70;;;5.57;;
12871;SDS011;6504;53.766;9.626;2023-02-01T10:38:16;23.80;;;6.93;;
12871;SDS011;6504;53.766;9.626;2023-02-01T10:40:51;20.93;;;5.47;;
12871;SDS011;6504;53.766;9.626;2023-02-01T10:43:20;30.30;;;6.60;;
12871;SDS011;6504;53.766;9.626;2023-02-01T10:45:48;22.67;;;6.17;;
12871;SDS011;6504;53.766;9.626;2023-02-01T10:48:17;23.83;;;5.60;;
12871;SDS011;6504;53.766;9.626;2023-02-01T10:50:46;23.40;;;6.67;;
12871;SDS011;6504;53.766;9.626;2023-02-01T10:53:20;25.90;;;6.50;;
12871;SDS011;6504;53.766;9.626;2023-02-01T10:55:52;21.27;;;5.43;;
12871;SDS011;6504;53.766;9.626;2023-02-01T10:58:26;25.10;;;5.87;;
12871;SDS011;6504;53.766;9.626;2023-02-01T11:01:00;20.07;;;5.70;;
12871;SDS011;6504;53.766;9.626;2023-02-01T11:03:33;28.80;;;5.87;;
12871;SDS011;6504;53.766;9.626;2023-02-01T11:06:09;21.00;;;5.60;;
12871;SDS011;6504;53.766;9.626;2023-02-01T11:08:45;23.20;;;5.13;;
12871;SDS011;6504;53.766;9.626;2023-02-01T11:11:17;21.53;;;5.73;;
12871;SDS011;6504;53.766;9.626;2023-02-01T11:13:51;24.23;;;5.77;;
12871;SDS011;6504;53.766;9.626;2023-02-01T11:16:20;19.67;;;5.20;;
12871;SDS011;6504;53.766;9.626;2023-02-01T11:18:52;23.13;;;6.47;;
12871;SDS011;6504;53.766;9.626;2023-02-01T11:21:21;18.93;;;5.43;;
12871;SDS011;6504;53.766;9.626;2023-02-01T11:23:50;18.27;;;4.83;;
12871;SDS011;6504;53.766;9.626;2023-02-01T11:26:22;19.40;;;5.07;;
12871;SDS011;6504;53.766;9.626;2023-02-01T11:28:53;17.43;;;4.47;;
12871;SDS011;6504;53.766;9.626;2023-02-01T11:31:26;16.73;;;5.03;;
12871;SDS011;6504;53.766;9.626;2023-02-01T11:33:58;17.70;;;5.47;;
12871;SDS011;6504;53.766;9.626;2023-02-01T11:36:32;20.17;;;4.63;;
12871;SDS011;6504;53.766;9.626;2023-02-01T11:39:15;17.00;;;4.40;;
12871;SDS011;6504;53.766;9.626;2023-02-01T11:42:00;17.30;;;4.30;;
12871;SDS011;6504;53.766;9.626;2023-02-01T11:44:31;17.83;;;3.97;;
12871;SDS011;6504;53.766;9.626;2023-02-01T11:49:50;16.27;;;4.43;;
12871;SDS011;6504;53.766;9.626;2023-02-01T11:52:24;14.53;;;4.23;;
12871;SDS011;6504;53.766;9.626;2023-02-01T11:55:13;13.50;;;3.80;;
12871;SDS011;6504;53.766;9.626;2023-02-01T11:58:02;11.07;;;3.57;;
12871;SDS011;6504;53.766;9.626;2023-02-01T12:00:43;14.60;;;4.20;;
12871;SDS011;6504;53.766;9.626;2023-02-01T12:03:35;15.17;;;3.83;;
12871;SDS011;6504;53.766;9.626;2023-02-01T12:06:17;11.17;;;3.73;;
12871;SDS011;6504;53.766;9.626;2023-02-01T12:08:55;9.77;;;3.47;;
12871;SDS011;6504;53.766;9.626;2023-02-01T12:11:42;7.30;;;2.30;;
12871;SDS011;6504;53.766;9.626;2023-02-01T12:14:22;3.67;;;1.90;;
12871;SDS011;6504;53.766;9.626;2023-02-01T12:17:08;4.00;;;1.53;;
12871;SDS011;6504;53.766;9.626;2023-02-01T12:19:59;5.53;;;1.50;;
12871;SDS011;6504;53.766;9.626;2023-02-01T12:22:40;5.43;;;1.93;;
12871;SDS011;6504;53.766;9.626;2023-02-01T12:25:29;7.00;;;2.33;;
12871;SDS011;6504;53.766;9.626;2023-02-01T12:28:28;7.20;;;1.90;;
12871;SDS011;6504;53.766;9.626;2023-02-01T12:31:21;4.40;;;1.40;;
12871;SDS011;6504;53.766;9.626;2023-02-01T12:34:18;4.00;;;1.40;;
12871;SDS011;6504;53.766;9.626;2023-02-01T12:36:56;4.87;;;1.40;;
12871;SDS011;6504;53.766;9.626;2023-02-01T12:39:37;4.23;;;1.47;;
12871;SDS011;6504;53.766;9.626;2023-02-01T12:42:09;4.80;;;1.43;;
12871;SDS011;6504;53.766;9.626;2023-02-01T12:44:44;5.10;;;1.40;;
12871;SDS011;6504;53.766;9.626;2023-02-01T12:47:19;3.93;;;2.07;;
12871;SDS011;6504;53.766;9.626;2023-02-01T12:49:53;6.23;;;2.00;;
12871;SDS011;6504;53.766;9.626;2023-02-01T12:52:30;8.40;;;1.40;;
12871;SDS011;6504;53.766;9.626;2023-02-01T12:55:06;6.87;;;1.70;;
12871;SDS011;6504;53.766;9.626;2023-02-01T12:57:43;3.27;;;1.40;;
12871;SDS011;6504;53.766;9.626;2023-02-01T13:00:17;5.13;;;1.50;;
12871;SDS011;6504;53.766;9.626;2023-02-01T13:02:54;6.03;;;1.30;;
12871;SDS011;6504;53.766;9.626;2023-02-01T13:05:28;3.43;;;1.50;;
12871;SDS011;6504;53.766;9.626;2023-02-01T13:08:02;2.17;;;1.03;;
12871;SDS011;6504;53.766;9.626;2023-02-01T13:10:36;3.47;;;1.27;;
12871;SDS011;6504;53.766;9.626;2023-02-01T13:13:10;5.03;;;1.80;;
12871;SDS011;6504;53.766;9.626;2023-02-01T13:15:49;3.07;;;1.40;;
12871;SDS011;6504;53.766;9.626;2023-02-01T13:18:25;8.13;;;2.47;;
12871;SDS011;6504;53.766;9.626;2023-02-01T13:21:01;6.93;;;1.40;;
12871;SDS011;6504;53.766;9.626;2023-02-01T13:23:33;4.90;;;1.63;;
12871;SDS011;6504;53.766;9.626;2023-02-01T13:26:03;5.97;;;2.03;;
12871;SDS011;6504;53.766;9.626;2023-02-01T13:28:34;3.87;;;1.60;;
12871;SDS011;6504;53.766;9.626;2023-02-01T13:37:14;8.90;;;2.80;;
12871;SDS011;6504;53.766;9.626;2023-02-01T13:39:59;4.67;;;1.53;;
12871;SDS011;6504;53.766;9.626;2023-02-01T13:42:42;7.53;;;2.23;;
12871;SDS011;6504;53.766;9.626;2023-02-01T13:45:16;5.97;;;1.83;;
12871;SDS011;6504;53.766;9.626;2023-02-01T13:47:48;5.33;;;1.80;;
12871;SDS011;6504;53.766;9.626;2023-02-01T13:50:22;9.07;;;2.30;;
12871;SDS011;6504;53.766;9.626;2023-02-01T13:52:55;8.43;;;3.20;;
12871;SDS011;6504;53.766;9.626;2023-02-01T13:55:29;5.90;;;2.83;;
12871;SDS011;6504;53.766;9.626;2023-02-01T13:58:06;7.03;;;2.17;;
12871;SDS011;6504;53.766;9.626;2023-02-01T14:00:42;8.90;;;2.23;;
12871;SDS011;6504;53.766;9.626;2023-02-01T14:03:17;9.97;;;2.50;;
12871;SDS011;6504;53.766;9.626;2023-02-01T14:05:56;11.53;;;4.30;;
12871;SDS011;6504;53.766;9.626;2023-02-01T14:08:38;16.27;;;3.77;;
12871;SDS011;6504;53.766;9.626;2023-02-01T14:23:10;4.10;;;1.33;;
12871;SDS011;6504;53.766;9.626;2023-02-01T14:25:41;3.10;;;1.70;;
12871;SDS011;6504;53.766;9.626;2023-02-01T14:28:11;5.53;;;1.90;;
12871;SDS011;6504;53.766;9.626;2023-02-01T14:30:47;4.00;;;1.83;;
12871;SDS011;6504;53.766;9.626;2023-02-01T14:33:20;5.30;;;1.63;;
12871;SDS011;6504;53.766;9.626;2023-02-01T14:36:01;6.90;;;2.00;;
12871;SDS011;6504;53.766;9.626;2023-02-01T14:38:35;8.10;;;1.90;;
12871;SDS011;6504;53.766;9.626;2023-02-01T14:41:10;6.00;;;1.97;;
12871;SDS011;6504;53.766;9.626;2023-02-01T14:43:50;8.43;;;3.37;;
12871;SDS011;6504;53.766;9.626;2023-02-01T14:46:19;5.23;;;1.77;;
12871;SDS011;6504;53.766;9.626;2023-02-01T14:48:47;6.83;;;1.87;;
12871;SDS011;6504;53.766;9.626;2023-02-01T14:51:16;7.40;;;2.40;;
12871;SDS011;6504;53.766;9.626;2023-02-01T14:53:47;9.00;;;2.40;;
12871;SDS011;6504;53.766;9.626;2023-02-01T14:56:17;11.17;;;3.20;;
12871;SDS011;6504;53.766;9.626;2023-02-01T14:58:49;11.20;;;2.80;;
12871;SDS011;6504;53.766;9.626;2023-02-01T15:01:23;16.73;;;3.70;;
12871;SDS011;6504;53.766;9.626;2023-02-01T15:03:57;12.40;;;3.10;;
12871;SDS011;6504;53.766;9.626;2023-02-01T15:06:32;13.37;;;3.50;;
12871;SDS011;6504;53.766;9.626;2023-02-01T15:09:08;12.43;;;3.13;;
12871;SDS011;6504;53.766;9.626;2023-02-01T15:11:58;14.07;;;3.30;;
12871;SDS011;6504;53.766;9.626;2023-02-01T15:14:29;15.63;;;3.93;;
12871;SDS011;6504;53.766;9.626;2023-02-01T15:16:58;13.70;;;3.60;;
12871;SDS011;6504;53.766;9.626;2023-02-01T15:19:27;15.77;;;3.63;;
12871;SDS011;6504;53.766;9.626;2023-02-01T15:21:57;16.80;;;4.77;;
12871;SDS011;6504;53.766;9.626;2023-02-01T15:24:28;18.77;;;4.20;;
12871;SDS011;6504;53.766;9.626;2023-02-01T15:27:02;24.67;;;4.93;;
12871;SDS011;6504;53.766;9.626;2023-02-01T15:29:32;22.83;;;5.57;;
12871;SDS011;6504;53.766;9.626;2023-02-01T15:32:00;22.57;;;4.90;;
12871;SDS011;6504;53.766;9.626;2023-02-01T15:34:44;18.13;;;4.17;;
12871;SDS011;6504;53.766;9.626;2023-02-01T15:37:14;15.93;;;4.80;;
12871;SDS011;6504;53.766;9.626;2023-02-01T15:40:05;17.97;;;4.40;;
12871;SDS011;6504;53.766;9.626;2023-02-01T15:42:50;19.07;;;4.40;;
12871;SDS011;6504;53.766;9.626;2023-02-01T15:45:20;15.50;;;4.20;;
12871;SDS011;6504;53.766;9.626;2023-02-01T15:47:51;13.47;;;4.33;;